sensor_id;sensor_type;location;lat;lon;timestamp;P1;durP1;ratioP1;P2;durP2;ratioP2
7501;SDS011;3792;47.740;7.606;2022-08-19T00:01:48;8.73;;;7.40;;
7501;SDS011;3792;47.740;7.606;2022-08-19T00:04:16;7.30;;;6.60;;
7501;SDS011;3792;47.740;7.606;2022-08-19T00:06:47;9.37;;;8.43;;
7501;SDS011;3792;47.740;7.606;2022-08-19T00:09:15;8.37;;;7.57;;
7501;SDS011;3792;47.740;7.606;2022-08-19T00:11:45;8.60;;;7.77;;
7501;SDS011;3792;47.740;7.606;2022-08-19T00:14:13;8.37;;;7.50;;
7501;SDS011;3792;47.740;7.606;2022-08-19T00:16:42;9.20;;;8.27;;
7501;SDS011;3792;47.740;7.606;2022-08-19T00:19:10;8.57;;;7.67;;
7501;SDS011;3792;47.740;7.606;2022-08-19T00:21:37;8.40;;;7.70;;
7501;SDS011;3792;47.740;7.606;2022-08-19T00:24:05;7.67;;;6.97;;
7501;SDS011;3792;47.740;7.606;2022-08-19T00:26:33;9.10;;;7.63;;
7501;SDS011;3792;47.740;7.606;2022-08-19T00:29:02;8.03;;;7.30;;
7501;SDS011;3792;47.740;7.606;2022-08-19T00:31:30;8.20;;;7.47;;
7501;SDS011;3792;47.740;7.606;2022-08-19T00:33:58;8.57;;;7.77;;
7501;SDS011;3792;47.740;7.606;2022-08-19T00:36:25;7.93;;;7.23;;
7501;SDS011;3792;47.740;7.606;2022-08-19T00:38:53;9.30;;;7.97;;
7501;SDS011;3792;47.740;7.606;2022-08-19T00:41:21;9.07;;;8.17;;
7501;SDS011;3792;47.740;7.606;2022-08-19T00:43:57;7.90;;;7.20;;
7501;SDS011;3792;47.740;7.606;2022-08-19T00:46:30;7.80;;;7.10;;
7501;SDS011;3792;47.740;7.606;2022-08-19T00:48:58;8.80;;;7.90;;
7501;SDS011;3792;47.740;7.606;2022-08-19T00:51:27;8.23;;;7.43;;
7501;SDS011;3792;47.740;7.606;2022-08-19T00:53:57;11.17;;;7.87;;
7501;SDS011;3792;47.740;7.606;2022-08-19T00:56:26;8.13;;;7.43;;
7501;SDS011;3792;47.740;7.606;2022-08-19T00:58:55;8.83;;;7.97;;
7501;SDS011;3792;47.740;7.606;2022-08-19T01:01:24;8.70;;;7.90;;
7501;SDS011;3792;47.740;7.606;2022-08-19T01:03:53;9.23;;;8.03;;
7501;SDS011;3792;47.740;7.606;2022-08-19T01:06:20;9.80;;;8.80;;
7501;SDS011;3792;47.740;7.606;2022-08-19T01:08:47;7.73;;;7.10;;
7501;SDS011;3792;47.740;7.606;2022-08-19T01:11:14;9.40;;;8.50;;
7501;SDS011;3792;47.740;7.606;2022-08-19T01:13:41;9.00;;;8.20;;
7501;SDS011;3792;47.740;7.606;2022-08-19T01:16:09;10.80;;;9.80;;
7501;SDS011;3792;47.740;7.606;2022-08-19T01:18:38;9.03;;;8.23;;
7501;SDS011;3792;47.740;7.606;2022-08-19T01:21:10;10.13;;;9.23;;
7501;SDS011;3792;47.740;7.606;2022-08-19T01:23:42;9.80;;;8.93;;
7501;SDS011;3792;47.740;7.606;2022-08-19T01:26:11;8.63;;;7.83;;
7501;SDS011;3792;47.740;7.606;2022-08-19T01:28:40;8.73;;;7.93;;
7501;SDS011;3792;47.740;7.606;2022-08-19T01:31:09;10.67;;;9.77;;
7501;SDS011;3792;47.740;7.606;2022-08-19T01:33:39;9.90;;;9.10;;
7501;SDS011;3792;47.740;7.606;2022-08-19T01:36:07;11.63;;;9.10;;
7501;SDS011;3792;47.740;7.606;2022-08-19T01:38:36;11.50;;;10.30;;
7501;SDS011;3792;47.740;7.606;2022-08-19T01:41:07;10.93;;;9.90;;
7501;SDS011;3792;47.740;7.606;2022-08-19T01:43:36;11.20;;;10.10;;
7501;SDS011;3792;47.740;7.606;2022-08-19T01:46:04;9.30;;;8.50;;
7501;SDS011;3792;47.740;7.606;2022-08-19T01:48:35;10.37;;;9.47;;
7501;SDS011;3792;47.740;7.606;2022-08-19T01:51:02;10.67;;;9.63;;
7501;SDS011;3792;47.740;7.606;2022-08-19T01:53:30;11.10;;;10.00;;
7501;SDS011;3792;47.740;7.606;2022-08-19T01:55:57;11.60;;;10.40;;
7501;SDS011;3792;47.740;7.606;2022-08-19T01:58:27;10.10;;;9.10;;
7501;SDS011;3792;47.740;7.606;2022-08-19T02:00:58;10.73;;;9.73;;
7501;SDS011;3792;47.740;7.606;2022-08-19T02:03:25;10.60;;;9.67;;
7501;SDS011;3792;47.740;7.606;2022-08-19T02:05:55;10.00;;;8.93;;
7501;SDS011;3792;47.740;7.606;2022-08-19T02:08:24;11.60;;;9.77;;
7501;SDS011;3792;47.740;7.606;2022-08-19T02:10:52;10.27;;;9.03;;
7501;SDS011;3792;47.740;7.606;2022-08-19T02:13:19;10.17;;;9.20;;
7501;SDS011;3792;47.740;7.606;2022-08-19T02:15:48;11.13;;;10.13;;
7501;SDS011;3792;47.740;7.606;2022-08-19T02:18:15;10.70;;;9.20;;
7501;SDS011;3792;47.740;7.606;2022-08-19T02:20:43;9.60;;;8.77;;
7501;SDS011;3792;47.740;7.606;2022-08-19T02:23:12;10.40;;;9.40;;
7501;SDS011;3792;47.740;7.606;2022-08-19T02:25:40;11.40;;;10.20;;
7501;SDS011;3792;47.740;7.606;2022-08-19T02:28:08;11.97;;;10.70;;
7501;SDS011;3792;47.740;7.606;2022-08-19T02:30:35;10.40;;;9.50;;
7501;SDS011;3792;47.740;7.606;2022-08-19T02:33:04;14.13;;;11.00;;
7501;SDS011;3792;47.740;7.606;2022-08-19T02:35:31;12.67;;;11.40;;
7501;SDS011;3792;47.740;7.606;2022-08-19T02:37:58;12.33;;;11.13;;
7501;SDS011;3792;47.740;7.606;2022-08-19T02:40:47;10.87;;;9.87;;
7501;SDS011;3792;47.740;7.606;2022-08-19T02:43:17;10.57;;;9.67;;
7501;SDS011;3792;47.740;7.606;2022-08-19T02:45:45;10.57;;;9.57;;
7501;SDS011;3792;47.740;7.606;2022-08-19T02:48:14;11.00;;;9.90;;
7501;SDS011;3792;47.740;7.606;2022-08-19T02:50:43;11.30;;;10.20;;
7501;SDS011;3792;47.740;7.606;2022-08-19T02:53:11;10.50;;;9.57;;
7501;SDS011;3792;47.740;7.606;2022-08-19T02:55:42;11.17;;;10.07;;
7501;SDS011;3792;47.740;7.606;2022-08-19T02:58:10;9.80;;;8.80;;
7501;SDS011;3792;47.740;7.606;2022-08-19T03:00:42;10.47;;;9.57;;
7501;SDS011;3792;47.740;7.606;2022-08-19T03:03:10;11.30;;;10.17;;
7501;SDS011;3792;47.740;7.606;2022-08-19T03:05:38;11.90;;;10.70;;
7501;SDS011;3792;47.740;7.606;2022-08-19T03:08:06;9.70;;;8.70;;
7501;SDS011;3792;47.740;7.606;2022-08-19T03:10:39;11.00;;;9.90;;
7501;SDS011;3792;47.740;7.606;2022-08-19T03:13:09;10.10;;;9.20;;
7501;SDS011;3792;47.740;7.606;2022-08-19T03:15:38;11.23;;;10.10;;
7501;SDS011;3792;47.740;7.606;2022-08-19T03:18:06;11.97;;;10.77;;
7501;SDS011;3792;47.740;7.606;2022-08-19T03:20:40;12.10;;;10.93;;
7501;SDS011;3792;47.740;7.606;2022-08-19T03:23:08;11.57;;;10.43;;
7501;SDS011;3792;47.740;7.606;2022-08-19T03:25:36;11.30;;;9.97;;
7501;SDS011;3792;47.740;7.606;2022-08-19T03:28:05;11.10;;;9.90;;
7501;SDS011;3792;47.740;7.606;2022-08-19T03:30:32;10.40;;;9.33;;
7501;SDS011;3792;47.740;7.606;2022-08-19T03:33:00;10.80;;;9.23;;
7501;SDS011;3792;47.740;7.606;2022-08-19T03:35:27;12.30;;;8.27;;
7501;SDS011;3792;47.740;7.606;2022-08-19T03:37:56;9.47;;;8.60;;
7501;SDS011;3792;47.740;7.606;2022-08-19T03:40:25;10.90;;;9.80;;
7501;SDS011;3792;47.740;7.606;2022-08-19T03:42:52;12.10;;;10.20;;
7501;SDS011;3792;47.740;7.606;2022-08-19T03:45:19;9.87;;;8.97;;
7501;SDS011;3792;47.740;7.606;2022-08-19T03:47:46;10.43;;;9.53;;
7501;SDS011;3792;47.740;7.606;2022-08-19T03:50:13;8.90;;;8.00;;
7501;SDS011;3792;47.740;7.606;2022-08-19T03:52:40;9.60;;;8.60;;
7501;SDS011;3792;47.740;7.606;2022-08-19T03:55:09;11.27;;;8.40;;
7501;SDS011;3792;47.740;7.606;2022-08-19T03:57:36;9.50;;;8.53;;
7501;SDS011;3792;47.740;7.606;2022-08-19T04:00:03;9.87;;;8.60;;
7501;SDS011;3792;47.740;7.606;2022-08-19T04:02:32;8.73;;;7.93;;
7501;SDS011;3792;47.740;7.606;2022-08-19T04:04:59;10.10;;;9.23;;
7501;SDS011;3792;47.740;7.606;2022-08-19T04:07:27;9.33;;;8.17;;
7501;SDS011;3792;47.740;7.606;2022-08-19T04:09:54;9.27;;;8.47;;
7501;SDS011;3792;47.740;7.606;2022-08-19T04:12:22;8.13;;;7.43;;
7501;SDS011;3792;47.740;7.606;2022-08-19T04:14:49;9.30;;;8.30;;
7501;SDS011;3792;47.740;7.606;2022-08-19T04:17:16;10.67;;;8.57;;
7501;SDS011;3792;47.740;7.606;2022-08-19T04:19:44;9.10;;;8.20;;
7501;SDS011;3792;47.740;7.606;2022-08-19T04:22:11;10.17;;;9.20;;
7501;SDS011;3792;47.740;7.606;2022-08-19T04:24:38;9.80;;;8.80;;
7501;SDS011;3792;47.740;7.606;2022-08-19T04:27:05;10.80;;;8.57;;
7501;SDS011;3792;47.740;7.606;2022-08-19T04:29:33;9.37;;;8.57;;
7501;SDS011;3792;47.740;7.606;2022-08-19T04:32:00;9.73;;;8.63;;
7501;SDS011;3792;47.740;7.606;2022-08-19T04:34:28;9.77;;;8.87;;
7501;SDS011;3792;47.740;7.606;2022-08-19T04:36:56;9.60;;;8.60;;
7501;SDS011;3792;47.740;7.606;2022-08-19T04:39:25;10.37;;;9.27;;
7501;SDS011;3792;47.740;7.606;2022-08-19T04:42:14;9.30;;;8.40;;
7501;SDS011;3792;47.740;7.606;2022-08-19T04:45:01;9.77;;;8.50;;
7501;SDS011;3792;47.740;7.606;2022-08-19T04:47:29;8.03;;;7.33;;
7501;SDS011;3792;47.740;7.606;2022-08-19T04:49:57;7.97;;;7.27;;
7501;SDS011;3792;47.740;7.606;2022-08-19T04:52:24;9.10;;;8.20;;
7501;SDS011;3792;47.740;7.606;2022-08-19T04:54:52;8.30;;;7.60;;
7501;SDS011;3792;47.740;7.606;2022-08-19T04:57:20;7.97;;;7.27;;
7501;SDS011;3792;47.740;7.606;2022-08-19T04:59:48;8.50;;;7.80;;
7501;SDS011;3792;47.740;7.606;2022-08-19T05:02:16;9.10;;;8.30;;
7501;SDS011;3792;47.740;7.606;2022-08-19T05:04:43;7.73;;;7.13;;
7501;SDS011;3792;47.740;7.606;2022-08-19T05:07:10;9.53;;;8.40;;
7501;SDS011;3792;47.740;7.606;2022-08-19T05:09:38;8.47;;;7.77;;
7501;SDS011;3792;47.740;7.606;2022-08-19T05:12:05;8.30;;;7.47;;
7501;SDS011;3792;47.740;7.606;2022-08-19T05:14:33;8.10;;;7.37;;
7501;SDS011;3792;47.740;7.606;2022-08-19T05:17:01;8.73;;;7.83;;
7501;SDS011;3792;47.740;7.606;2022-08-19T05:19:30;8.53;;;7.63;;
7501;SDS011;3792;47.740;7.606;2022-08-19T05:22:14;7.93;;;7.23;;
7501;SDS011;3792;47.740;7.606;2022-08-19T05:25:04;9.40;;;7.30;;
7501;SDS011;3792;47.740;7.606;2022-08-19T05:27:33;8.53;;;7.73;;
7501;SDS011;3792;47.740;7.606;2022-08-19T05:30:00;7.53;;;6.93;;
7501;SDS011;3792;47.740;7.606;2022-08-19T05:32:28;8.73;;;7.90;;
7501;SDS011;3792;47.740;7.606;2022-08-19T05:34:56;9.40;;;8.43;;
7501;SDS011;3792;47.740;7.606;2022-08-19T05:37:23;9.30;;;8.50;;
7501;SDS011;3792;47.740;7.606;2022-08-19T05:39:52;9.10;;;7.33;;
7501;SDS011;3792;47.740;7.606;2022-08-19T05:42:20;8.23;;;7.50;;
7501;SDS011;3792;47.740;7.606;2022-08-19T05:44:49;8.57;;;7.77;;
7501;SDS011;3792;47.740;7.606;2022-08-19T05:47:17;8.33;;;7.63;;
7501;SDS011;3792;47.740;7.606;2022-08-19T05:49:45;8.37;;;7.67;;
7501;SDS011;3792;47.740;7.606;2022-08-19T05:52:16;8.93;;;8.10;;
7501;SDS011;3792;47.740;7.606;2022-08-19T05:54:44;7.77;;;6.97;;
7501;SDS011;3792;47.740;7.606;2022-08-19T05:57:13;8.63;;;7.83;;
7501;SDS011;3792;47.740;7.606;2022-08-19T05:59:40;10.77;;;8.90;;
7501;SDS011;3792;47.740;7.606;2022-08-19T06:02:10;7.87;;;7.17;;
7501;SDS011;3792;47.740;7.606;2022-08-19T06:04:38;10.90;;;8.30;;
7501;SDS011;3792;47.740;7.606;2022-08-19T06:07:07;8.70;;;7.83;;
7501;SDS011;3792;47.740;7.606;2022-08-19T06:09:36;11.07;;;8.73;;
7501;SDS011;3792;47.740;7.606;2022-08-19T06:12:03;9.43;;;8.53;;
7501;SDS011;3792;47.740;7.606;2022-08-19T06:14:31;10.37;;;8.67;;
7501;SDS011;3792;47.740;7.606;2022-08-19T06:17:00;10.17;;;7.83;;
7501;SDS011;3792;47.740;7.606;2022-08-19T06:19:28;9.37;;;8.57;;
7501;SDS011;3792;47.740;7.606;2022-08-19T06:21:56;9.47;;;8.47;;
7501;SDS011;3792;47.740;7.606;2022-08-19T06:24:25;9.37;;;8.43;;
7501;SDS011;3792;47.740;7.606;2022-08-19T06:26:56;8.77;;;7.87;;
7501;SDS011;3792;47.740;7.606;2022-08-19T06:29:25;8.90;;;8.00;;
7501;SDS011;3792;47.740;7.606;2022-08-19T06:31:55;8.60;;;7.80;;
7501;SDS011;3792;47.740;7.606;2022-08-19T06:34:24;9.03;;;8.13;;
7501;SDS011;3792;47.740;7.606;2022-08-19T06:36:52;8.70;;;7.90;;
7501;SDS011;3792;47.740;7.606;2022-08-19T06:39:21;10.17;;;8.70;;
7501;SDS011;3792;47.740;7.606;2022-08-19T06:41:51;9.27;;;8.33;;
7501;SDS011;3792;47.740;7.606;2022-08-19T06:44:22;9.17;;;8.27;;
7501;SDS011;3792;47.740;7.606;2022-08-19T06:46:50;8.87;;;8.00;;
7501;SDS011;3792;47.740;7.606;2022-08-19T06:49:18;9.33;;;8.50;;
7501;SDS011;3792;47.740;7.606;2022-08-19T06:51:45;12.80;;;9.23;;
7501;SDS011;3792;47.740;7.606;2022-08-19T06:54:14;10.53;;;8.23;;
7501;SDS011;3792;47.740;7.606;2022-08-19T06:56:43;8.60;;;7.80;;
7501;SDS011;3792;47.740;7.606;2022-08-19T06:59:11;8.37;;;7.60;;
7501;SDS011;3792;47.740;7.606;2022-08-19T07:01:43;10.87;;;9.13;;
7501;SDS011;3792;47.740;7.606;2022-08-19T07:04:12;11.20;;;9.90;;
7501;SDS011;3792;47.740;7.606;2022-08-19T07:06:41;10.23;;;9.30;;
7501;SDS011;3792;47.740;7.606;2022-08-19T07:09:09;10.77;;;9.40;;
7501;SDS011;3792;47.740;7.606;2022-08-19T07:11:37;9.73;;;8.83;;
7501;SDS011;3792;47.740;7.606;2022-08-19T07:14:04;10.70;;;9.70;;
7501;SDS011;3792;47.740;7.606;2022-08-19T07:16:31;9.77;;;8.87;;
7501;SDS011;3792;47.740;7.606;2022-08-19T07:19:00;10.77;;;9.13;;
7501;SDS011;3792;47.740;7.606;2022-08-19T07:21:28;9.40;;;8.33;;
7501;SDS011;3792;47.740;7.606;2022-08-19T07:23:56;12.10;;;9.83;;
7501;SDS011;3792;47.740;7.606;2022-08-19T07:26:26;15.20;;;11.00;;
7501;SDS011;3792;47.740;7.606;2022-08-19T07:28:55;10.33;;;9.40;;
7501;SDS011;3792;47.740;7.606;2022-08-19T07:31:24;10.27;;;9.33;;
7501;SDS011;3792;47.740;7.606;2022-08-19T07:33:53;11.03;;;9.90;;
7501;SDS011;3792;47.740;7.606;2022-08-19T07:36:25;12.63;;;11.53;;
7501;SDS011;3792;47.740;7.606;2022-08-19T07:38:57;12.73;;;11.47;;
7501;SDS011;3792;47.740;7.606;2022-08-19T07:41:26;10.93;;;9.93;;
7501;SDS011;3792;47.740;7.606;2022-08-19T07:43:56;12.30;;;11.10;;
7501;SDS011;3792;47.740;7.606;2022-08-19T07:46:23;12.70;;;11.50;;
7501;SDS011;3792;47.740;7.606;2022-08-19T07:48:53;11.53;;;10.43;;
7501;SDS011;3792;47.740;7.606;2022-08-19T07:51:20;10.80;;;9.90;;
7501;SDS011;3792;47.740;7.606;2022-08-19T07:53:49;12.43;;;11.17;;
7501;SDS011;3792;47.740;7.606;2022-08-19T07:56:17;11.37;;;10.37;;
7501;SDS011;3792;47.740;7.606;2022-08-19T07:58:46;11.73;;;10.73;;
7501;SDS011;3792;47.740;7.606;2022-08-19T08:01:15;11.17;;;10.07;;
7501;SDS011;3792;47.740;7.606;2022-08-19T08:03:44;12.23;;;11.13;;
7501;SDS011;3792;47.740;7.606;2022-08-19T08:06:31;13.77;;;12.40;;
7501;SDS011;3792;47.740;7.606;2022-08-19T08:09:15;13.90;;;12.50;;
7501;SDS011;3792;47.740;7.606;2022-08-19T08:11:48;12.67;;;11.47;;
7501;SDS011;3792;47.740;7.606;2022-08-19T08:14:17;10.77;;;9.77;;
7501;SDS011;3792;47.740;7.606;2022-08-19T08:16:47;14.73;;;12.57;;
7501;SDS011;3792;47.740;7.606;2022-08-19T08:19:17;14.73;;;13.30;;
7501;SDS011;3792;47.740;7.606;2022-08-19T08:21:47;14.80;;;13.37;;
7501;SDS011;3792;47.740;7.606;2022-08-19T08:24:15;13.60;;;11.40;;
7501;SDS011;3792;47.740;7.606;2022-08-19T08:26:42;17.30;;;14.43;;
7501;SDS011;3792;47.740;7.606;2022-08-19T08:29:10;15.73;;;14.03;;
7501;SDS011;3792;47.740;7.606;2022-08-19T08:31:37;15.47;;;13.97;;
7501;SDS011;3792;47.740;7.606;2022-08-19T08:34:05;14.07;;;12.67;;
7501;SDS011;3792;47.740;7.606;2022-08-19T08:36:34;15.97;;;14.20;;
7501;SDS011;3792;47.740;7.606;2022-08-19T08:39:07;17.30;;;15.67;;
7501;SDS011;3792;47.740;7.606;2022-08-19T08:41:35;17.60;;;15.73;;
7501;SDS011;3792;47.740;7.606;2022-08-19T08:44:13;20.73;;;16.43;;
7501;SDS011;3792;47.740;7.606;2022-08-19T08:46:47;16.80;;;15.23;;
7501;SDS011;3792;47.740;7.606;2022-08-19T08:49:20;20.83;;;18.73;;
7501;SDS011;3792;47.740;7.606;2022-08-19T08:51:54;20.57;;;18.47;;
7501;SDS011;3792;47.740;7.606;2022-08-19T08:54:30;18.80;;;16.80;;
7501;SDS011;3792;47.740;7.606;2022-08-19T08:57:00;20.43;;;18.33;;
7501;SDS011;3792;47.740;7.606;2022-08-19T08:59:33;19.90;;;17.90;;
7501;SDS011;3792;47.740;7.606;2022-08-19T09:02:03;20.47;;;18.30;;
7501;SDS011;3792;47.740;7.606;2022-08-19T09:04:30;20.77;;;18.63;;
7501;SDS011;3792;47.740;7.606;2022-08-19T09:07:00;19.40;;;17.47;;
7501;SDS011;3792;47.740;7.606;2022-08-19T09:09:42;21.53;;;19.23;;
7501;SDS011;3792;47.740;7.606;2022-08-19T09:12:20;21.93;;;19.77;;
7501;SDS011;3792;47.740;7.606;2022-08-19T09:14:53;19.43;;;17.43;;
7501;SDS011;3792;47.740;7.606;2022-08-19T09:17:24;20.23;;;18.03;;
7501;SDS011;3792;47.740;7.606;2022-08-19T09:19:56;21.33;;;18.60;;
7501;SDS011;3792;47.740;7.606;2022-08-19T09:22:25;19.07;;;16.73;;
7501;SDS011;3792;47.740;7.606;2022-08-19T09:24:54;19.40;;;17.30;;
7501;SDS011;3792;47.740;7.606;2022-08-19T09:27:22;18.63;;;16.73;;
7501;SDS011;3792;47.740;7.606;2022-08-19T09:29:50;20.00;;;17.90;;
7501;SDS011;3792;47.740;7.606;2022-08-19T09:32:18;17.73;;;16.00;;
7501;SDS011;3792;47.740;7.606;2022-08-19T09:34:45;19.27;;;16.53;;
7501;SDS011;3792;47.740;7.606;2022-08-19T09:37:12;19.60;;;17.60;;
7501;SDS011;3792;47.740;7.606;2022-08-19T09:39:40;17.80;;;15.97;;
7501;SDS011;3792;47.740;7.606;2022-08-19T09:42:09;18.17;;;16.37;;
7501;SDS011;3792;47.740;7.606;2022-08-19T09:44:38;19.20;;;16.43;;
7501;SDS011;3792;47.740;7.606;2022-08-19T09:47:06;18.17;;;16.37;;
7501;SDS011;3792;47.740;7.606;2022-08-19T09:49:33;16.97;;;15.03;;
7501;SDS011;3792;47.740;7.606;2022-08-19T09:52:01;17.57;;;15.73;;
7501;SDS011;3792;47.740;7.606;2022-08-19T09:54:28;17.67;;;15.97;;
7501;SDS011;3792;47.740;7.606;2022-08-19T09:56:55;21.47;;;17.43;;
7501;SDS011;3792;47.740;7.606;2022-08-19T09:59:26;18.60;;;16.57;;
7501;SDS011;3792;47.740;7.606;2022-08-19T10:01:54;17.23;;;15.53;;
7501;SDS011;3792;47.740;7.606;2022-08-19T10:04:21;19.97;;;16.07;;
7501;SDS011;3792;47.740;7.606;2022-08-19T10:07:08;17.60;;;15.80;;
7501;SDS011;3792;47.740;7.606;2022-08-19T10:09:36;17.83;;;15.97;;
7501;SDS011;3792;47.740;7.606;2022-08-19T10:12:03;18.97;;;17.00;;
7501;SDS011;3792;47.740;7.606;2022-08-19T10:14:32;16.27;;;14.73;;
7501;SDS011;3792;47.740;7.606;2022-08-19T10:17:00;18.77;;;16.60;;
7501;SDS011;3792;47.740;7.606;2022-08-19T10:19:28;15.90;;;13.80;;
7501;SDS011;3792;47.740;7.606;2022-08-19T10:22:02;16.07;;;14.57;;
7501;SDS011;3792;47.740;7.606;2022-08-19T10:24:30;17.93;;;15.63;;
7501;SDS011;3792;47.740;7.606;2022-08-19T10:26:58;15.93;;;14.33;;
7501;SDS011;3792;47.740;7.606;2022-08-19T10:29:28;16.07;;;14.50;;
7501;SDS011;3792;47.740;7.606;2022-08-19T10:31:57;17.30;;;15.57;;
7501;SDS011;3792;47.740;7.606;2022-08-19T10:34:25;16.63;;;15.03;;
7501;SDS011;3792;47.740;7.606;2022-08-19T10:36:55;16.57;;;14.93;;
7501;SDS011;3792;47.740;7.606;2022-08-19T10:39:23;17.23;;;14.93;;
7501;SDS011;3792;47.740;7.606;2022-08-19T10:41:50;18.87;;;16.97;;
7501;SDS011;3792;47.740;7.606;2022-08-19T10:44:17;21.23;;;19.03;;
7501;SDS011;3792;47.740;7.606;2022-08-19T10:46:44;18.27;;;16.47;;
7501;SDS011;3792;47.740;7.606;2022-08-19T10:49:13;20.77;;;17.40;;
7501;SDS011;3792;47.740;7.606;2022-08-19T10:51:40;18.87;;;16.87;;
7501;SDS011;3792;47.740;7.606;2022-08-19T10:54:25;17.90;;;16.03;;
7501;SDS011;3792;47.740;7.606;2022-08-19T10:57:13;17.10;;;15.30;;
7501;SDS011;3792;47.740;7.606;2022-08-19T10:59:40;20.17;;;17.97;;
7501;SDS011;3792;47.740;7.606;2022-08-19T11:02:08;19.67;;;17.57;;
7501;SDS011;3792;47.740;7.606;2022-08-19T11:04:39;28.47;;;23.33;;
7501;SDS011;3792;47.740;7.606;2022-08-19T11:07:07;31.23;;;27.70;;
7501;SDS011;3792;47.740;7.606;2022-08-19T11:09:37;20.47;;;18.37;;
7501;SDS011;3792;47.740;7.606;2022-08-19T11:12:06;18.63;;;16.73;;
7501;SDS011;3792;47.740;7.606;2022-08-19T11:14:33;18.10;;;16.37;;
7501;SDS011;3792;47.740;7.606;2022-08-19T11:17:02;17.23;;;15.53;;
7501;SDS011;3792;47.740;7.606;2022-08-19T11:19:29;17.23;;;15.20;;
7501;SDS011;3792;47.740;7.606;2022-08-19T11:21:58;16.37;;;14.63;;
7501;SDS011;3792;47.740;7.606;2022-08-19T11:24:27;17.27;;;15.57;;
7501;SDS011;3792;47.740;7.606;2022-08-19T11:26:59;19.53;;;15.93;;
7501;SDS011;3792;47.740;7.606;2022-08-19T11:29:29;16.90;;;15.17;;
7501;SDS011;3792;47.740;7.606;2022-08-19T11:31:59;18.27;;;16.47;;
7501;SDS011;3792;47.740;7.606;2022-08-19T11:34:29;16.43;;;14.73;;
7501;SDS011;3792;47.740;7.606;2022-08-19T11:36:58;18.30;;;16.40;;
7501;SDS011;3792;47.740;7.606;2022-08-19T11:39:26;19.97;;;17.77;;
7501;SDS011;3792;47.740;7.606;2022-08-19T11:41:55;16.83;;;15.23;;
7501;SDS011;3792;47.740;7.606;2022-08-19T11:44:24;19.17;;;17.23;;
7501;SDS011;3792;47.740;7.606;2022-08-19T11:46:52;18.17;;;16.30;;
7501;SDS011;3792;47.740;7.606;2022-08-19T11:49:20;20.33;;;18.07;;
7501;SDS011;3792;47.740;7.606;2022-08-19T11:51:47;19.33;;;17.27;;
7501;SDS011;3792;47.740;7.606;2022-08-19T11:54:16;20.93;;;16.50;;
7501;SDS011;3792;47.740;7.606;2022-08-19T11:56:44;20.00;;;17.33;;
7501;SDS011;3792;47.740;7.606;2022-08-19T11:59:12;20.73;;;18.73;;
7501;SDS011;3792;47.740;7.606;2022-08-19T12:01:40;19.83;;;17.83;;
7501;SDS011;3792;47.740;7.606;2022-08-19T12:04:07;20.23;;;18.13;;
7501;SDS011;3792;47.740;7.606;2022-08-19T12:06:37;20.70;;;18.60;;
7501;SDS011;3792;47.740;7.606;2022-08-19T12:09:06;21.80;;;19.70;;
7501;SDS011;3792;47.740;7.606;2022-08-19T12:11:36;22.10;;;19.67;;
7501;SDS011;3792;47.740;7.606;2022-08-19T12:14:04;23.57;;;19.90;;
7501;SDS011;3792;47.740;7.606;2022-08-19T12:16:32;25.47;;;21.60;;
7501;SDS011;3792;47.740;7.606;2022-08-19T12:19:00;25.03;;;21.93;;
7501;SDS011;3792;47.740;7.606;2022-08-19T12:21:29;23.50;;;21.20;;
7501;SDS011;3792;47.740;7.606;2022-08-19T12:23:58;24.53;;;22.03;;
7501;SDS011;3792;47.740;7.606;2022-08-19T12:26:27;24.20;;;21.27;;
7501;SDS011;3792;47.740;7.606;2022-08-19T12:28:57;27.03;;;23.10;;
7501;SDS011;3792;47.740;7.606;2022-08-19T12:31:25;25.97;;;23.17;;
7501;SDS011;3792;47.740;7.606;2022-08-19T12:33:53;25.17;;;22.47;;
7501;SDS011;3792;47.740;7.606;2022-08-19T12:36:20;27.50;;;24.07;;
7501;SDS011;3792;47.740;7.606;2022-08-19T12:38:48;25.80;;;23.03;;
7501;SDS011;3792;47.740;7.606;2022-08-19T12:41:15;26.33;;;23.67;;
7501;SDS011;3792;47.740;7.606;2022-08-19T12:43:43;24.80;;;22.20;;
7501;SDS011;3792;47.740;7.606;2022-08-19T12:46:12;29.97;;;25.77;;
7501;SDS011;3792;47.740;7.606;2022-08-19T12:48:39;30.13;;;24.63;;
7501;SDS011;3792;47.740;7.606;2022-08-19T12:51:08;28.57;;;25.57;;
7501;SDS011;3792;47.740;7.606;2022-08-19T12:53:37;30.40;;;24.00;;
7501;SDS011;3792;47.740;7.606;2022-08-19T12:56:04;27.43;;;24.43;;
7501;SDS011;3792;47.740;7.606;2022-08-19T12:58:32;29.10;;;24.00;;
7501;SDS011;3792;47.740;7.606;2022-08-19T13:00:59;32.33;;;27.23;;
7501;SDS011;3792;47.740;7.606;2022-08-19T13:03:33;31.70;;;26.43;;
7501;SDS011;3792;47.740;7.606;2022-08-19T13:06:00;29.70;;;26.50;;
7501;SDS011;3792;47.740;7.606;2022-08-19T13:08:27;31.17;;;27.07;;
7501;SDS011;3792;47.740;7.606;2022-08-19T13:10:54;31.20;;;25.57;;
7501;SDS011;3792;47.740;7.606;2022-08-19T13:13:21;34.07;;;28.80;;
7501;SDS011;3792;47.740;7.606;2022-08-19T13:15:51;29.93;;;26.70;;
7501;SDS011;3792;47.740;7.606;2022-08-19T13:18:18;29.97;;;26.70;;
7501;SDS011;3792;47.740;7.606;2022-08-19T13:20:46;35.63;;;29.70;;
7501;SDS011;3792;47.740;7.606;2022-08-19T13:23:13;33.87;;;29.37;;
7501;SDS011;3792;47.740;7.606;2022-08-19T13:25:40;33.07;;;29.47;;
7501;SDS011;3792;47.740;7.606;2022-08-19T13:28:07;30.30;;;26.93;;
7501;SDS011;3792;47.740;7.606;2022-08-19T13:30:34;32.27;;;28.43;;
7501;SDS011;3792;47.740;7.606;2022-08-19T13:33:18;30.53;;;27.20;;
7501;SDS011;3792;47.740;7.606;2022-08-19T13:35:48;26.70;;;20.50;;
7501;SDS011;3792;47.740;7.606;2022-08-19T13:38:22;28.43;;;25.47;;
7501;SDS011;3792;47.740;7.606;2022-08-19T13:40:57;29.70;;;26.53;;
7501;SDS011;3792;47.740;7.606;2022-08-19T13:43:36;24.80;;;22.30;;
7501;SDS011;3792;47.740;7.606;2022-08-19T13:46:07;27.27;;;24.30;;
7501;SDS011;3792;47.740;7.606;2022-08-19T13:48:41;28.73;;;25.63;;
7501;SDS011;3792;47.740;7.606;2022-08-19T13:51:10;25.27;;;22.67;;
7501;SDS011;3792;47.740;7.606;2022-08-19T13:53:40;31.77;;;27.93;;
7501;SDS011;3792;47.740;7.606;2022-08-19T13:56:15;34.03;;;26.33;;
7501;SDS011;3792;47.740;7.606;2022-08-19T13:58:44;30.60;;;27.47;;
7501;SDS011;3792;47.740;7.606;2022-08-19T14:01:12;30.87;;;26.57;;
7501;SDS011;3792;47.740;7.606;2022-08-19T14:03:47;31.87;;;27.20;;
7501;SDS011;3792;47.740;7.606;2022-08-19T14:06:19;29.87;;;26.03;;
7501;SDS011;3792;47.740;7.606;2022-08-19T14:08:52;32.50;;;28.97;;
7501;SDS011;3792;47.740;7.606;2022-08-19T14:11:19;30.30;;;27.17;;
7501;SDS011;3792;47.740;7.606;2022-08-19T14:13:48;30.77;;;27.47;;
7501;SDS011;3792;47.740;7.606;2022-08-19T14:16:15;30.03;;;26.83;;
7501;SDS011;3792;47.740;7.606;2022-08-19T14:18:43;27.90;;;24.97;;
7501;SDS011;3792;47.740;7.606;2022-08-19T14:21:14;27.93;;;25.03;;
7501;SDS011;3792;47.740;7.606;2022-08-19T14:23:43;26.83;;;24.03;;
7501;SDS011;3792;47.740;7.606;2022-08-19T14:26:12;27.60;;;24.77;;
7501;SDS011;3792;47.740;7.606;2022-08-19T14:28:40;27.13;;;24.33;;
7501;SDS011;3792;47.740;7.606;2022-08-19T14:31:08;27.03;;;24.13;;
7501;SDS011;3792;47.740;7.606;2022-08-19T14:33:36;27.83;;;24.83;;
7501;SDS011;3792;47.740;7.606;2022-08-19T14:36:03;28.67;;;25.57;;
7501;SDS011;3792;47.740;7.606;2022-08-19T14:38:31;30.63;;;27.33;;
7501;SDS011;3792;47.740;7.606;2022-08-19T14:41:11;26.27;;;23.53;;
7501;SDS011;3792;47.740;7.606;2022-08-19T14:43:40;29.90;;;26.70;;
7501;SDS011;3792;47.740;7.606;2022-08-19T14:46:10;28.53;;;25.53;;
7501;SDS011;3792;47.740;7.606;2022-08-19T14:48:38;28.90;;;25.90;;
7501;SDS011;3792;47.740;7.606;2022-08-19T14:51:05;27.73;;;24.83;;
7501;SDS011;3792;47.740;7.606;2022-08-19T14:53:33;30.53;;;26.40;;
7501;SDS011;3792;47.740;7.606;2022-08-19T14:56:00;28.37;;;25.27;;
7501;SDS011;3792;47.740;7.606;2022-08-19T14:58:29;28.43;;;25.43;;
7501;SDS011;3792;47.740;7.606;2022-08-19T15:00:57;28.67;;;25.67;;
7501;SDS011;3792;47.740;7.606;2022-08-19T15:03:25;30.13;;;26.40;;
7501;SDS011;3792;47.740;7.606;2022-08-19T15:05:52;28.23;;;25.23;;
7501;SDS011;3792;47.740;7.606;2022-08-19T15:08:20;29.90;;;26.50;;
7501;SDS011;3792;47.740;7.606;2022-08-19T15:10:47;31.03;;;27.50;;